createdAt,value
2019-03-23T00:00:22.414Z,1021.91
2019-03-23T00:01:22.408Z,1021.92
2019-03-23T00:02:22.403Z,1021.93
2019-03-23T00:03:22.385Z,1021.93
2019-03-23T00:04:22.387Z,1021.88
2019-03-23T00:05:22.360Z,1021.97
2019-03-23T00:06:30.404Z,1021.91
2019-03-23T00:07:23.337Z,1021.94
2019-03-23T00:08:22.361Z,1021.91
2019-03-23T00:09:22.317Z,1021.92
2019-03-23T00:10:22.311Z,1021.89
2019-03-23T00:11:22.301Z,1021.85
2019-03-23T00:12:22.286Z,1021.82
2019-03-23T00:13:22.279Z,1021.81
2019-03-23T00:14:22.271Z,1021.77
2019-03-23T00:15:22.252Z,1021.78
2019-03-23T00:16:22.247Z,1021.76
2019-03-23T00:17:22.235Z,1021.80
2019-03-23T00:18:22.226Z,1021.83
2019-03-23T00:19:22.275Z,1021.80
2019-03-23T00:20:22.204Z,1021.83
2019-03-23T00:21:22.192Z,1021.80
2019-03-23T00:22:22.177Z,1021.79
2019-03-23T00:23:22.175Z,1021.77
2019-03-23T00:24:22.162Z,1021.75
2019-03-23T00:25:22.163Z,1021.74
2019-03-23T00:26:22.139Z,1021.78
2019-03-23T00:27:22.124Z,1021.74
2019-03-23T00:28:22.120Z,1021.69
2019-03-23T00:29:22.111Z,1021.71
2019-03-23T00:30:22.107Z,1021.72
2019-03-23T00:31:22.086Z,1021.73
2019-03-23T00:32:22.076Z,1021.65
2019-03-23T00:33:22.072Z,1021.64
2019-03-23T00:34:22.102Z,1021.65
2019-03-23T00:35:22.041Z,1021.64
2019-03-23T00:36:22.029Z,1021.66
2019-03-23T00:37:22.024Z,1021.61
2019-03-23T00:38:22.013Z,1021.62
2019-03-23T00:39:22.002Z,1021.62
2019-03-23T00:40:21.993Z,1021.62
2019-03-23T00:41:21.982Z,1021.59
2019-03-23T00:42:22.015Z,1021.59
2019-03-23T00:43:21.993Z,1021.55
2019-03-23T00:44:21.947Z,1021.57
2019-03-23T00:45:21.939Z,1021.53
2019-03-23T00:46:21.926Z,1021.49
2019-03-23T00:47:21.912Z,1021.50
2019-03-23T00:48:21.899Z,1021.44
2019-03-23T00:49:21.902Z,1021.44
2019-03-23T00:50:21.892Z,1021.42
2019-03-23T00:51:21.869Z,1021.43
2019-03-23T00:52:21.889Z,1021.39
2019-03-23T00:53:21.850Z,1021.38
2019-03-23T00:54:21.840Z,1021.37
2019-03-23T00:55:21.824Z,1021.36
2019-03-23T00:56:21.814Z,1021.31
2019-03-23T00:57:21.810Z,1021.35
2019-03-23T00:58:21.802Z,1021.28
2019-03-23T00:59:21.783Z,1021.29
2019-03-23T01:00:36.377Z,1021.22
2019-03-23T01:01:21.776Z,1021.23
2019-03-23T01:02:21.757Z,1021.25
2019-03-23T01:03:21.750Z,1021.20
2019-03-23T01:04:21.730Z,1021.20
2019-03-23T01:05:21.719Z,1021.22
2019-03-23T01:06:21.722Z,1021.23
2019-03-23T01:07:21.697Z,1021.23
2019-03-23T01:08:21.692Z,1021.23
2019-03-23T01:09:21.685Z,1021.25
2019-03-23T01:10:21.663Z,1021.23
2019-03-23T01:11:21.659Z,1021.27
2019-03-23T01:12:21.678Z,1021.24
2019-03-23T01:13:21.637Z,1021.23
2019-03-23T01:14:21.622Z,1021.24
2019-03-23T01:15:21.620Z,1021.18
2019-03-23T01:16:21.601Z,1021.12
2019-03-23T01:17:21.589Z,1021.16
2019-03-23T01:18:21.589Z,1021.12
2019-03-23T01:19:21.577Z,1021.12
2019-03-23T01:20:21.570Z,1021.07
2019-03-23T01:21:21.548Z,1021.09
2019-03-23T01:22:21.537Z,1021.09
2019-03-23T01:23:21.531Z,1021.04
2019-03-23T01:24:21.546Z,1021.04
2019-03-23T01:25:21.511Z,1021.04
2019-03-23T01:26:21.493Z,1021.02
2019-03-23T01:27:21.492Z,1020.97
2019-03-23T01:28:21.488Z,1020.96
2019-03-23T01:29:21.466Z,1020.94
2019-03-23T01:30:21.461Z,1020.95
2019-03-23T01:31:21.442Z,1020.93
2019-03-23T01:32:21.429Z,1020.93
2019-03-23T01:33:21.421Z,1020.92
2019-03-23T01:34:21.409Z,1020.93
2019-03-23T01:35:21.434Z,1020.90
2019-03-23T01:36:21.388Z,1020.93
2019-03-23T01:37:21.381Z,1020.93
2019-03-23T01:38:21.367Z,1020.89
2019-03-23T01:39:21.360Z,1020.89
2019-03-23T01:40:21.346Z,1020.93
2019-03-23T01:41:21.370Z,1020.91
2019-03-23T01:42:21.325Z,1020.89
2019-03-23T01:43:21.314Z,1020.92
2019-03-23T01:44:21.303Z,1020.91
2019-03-23T01:45:21.299Z,1020.87
2019-03-23T01:46:21.295Z,1020.87
2019-03-23T01:47:21.288Z,1020.81
2019-03-23T01:48:21.267Z,1020.84
2019-03-23T01:49:21.257Z,1020.82
2019-03-23T01:50:21.240Z,1020.77
2019-03-23T01:51:21.248Z,1020.77
2019-03-23T01:52:21.229Z,1020.75
2019-03-23T01:53:21.213Z,1020.77
2019-03-23T01:54:21.197Z,1020.72
2019-03-23T01:55:21.185Z,1020.69
2019-03-23T01:56:21.175Z,1020.69
2019-03-23T01:57:21.181Z,1020.71
2019-03-23T01:58:21.157Z,1020.76
2019-03-23T01:59:21.147Z,1020.71
2019-03-23T02:00:21.134Z,1020.70
2019-03-23T02:01:21.136Z,1020.66
2019-03-23T02:02:21.123Z,1020.68
2019-03-23T02:03:21.112Z,1020.67
2019-03-23T02:04:21.100Z,1020.68
2019-03-23T02:05:21.085Z,1020.66
2019-03-23T02:06:21.075Z,1020.63
2019-03-23T02:07:21.058Z,1020.60
2019-03-23T02:08:21.059Z,1020.63
2019-03-23T02:09:21.044Z,1020.61
2019-03-23T02:10:21.028Z,1020.57
2019-03-23T02:11:21.018Z,1020.55
2019-03-23T02:12:21.043Z,1020.57
2019-03-23T02:13:20.994Z,1020.56
2019-03-23T02:14:20.993Z,1020.61
2019-03-23T02:15:20.980Z,1020.61
2019-03-23T02:16:20.968Z,1020.63
2019-03-23T02:17:20.967Z,1020.65
2019-03-23T02:18:20.955Z,1020.64
2019-03-23T02:19:20.935Z,1020.62
2019-03-23T02:20:20.922Z,1020.60
2019-03-23T02:21:20.910Z,1020.61
2019-03-23T02:22:20.913Z,1020.56
2019-03-23T02:23:20.899Z,1020.53
2019-03-23T02:24:20.889Z,1020.55
2019-03-23T02:25:20.873Z,1020.52
2019-03-23T02:26:20.858Z,1020.54
2019-03-23T02:27:20.849Z,1020.53
2019-03-23T02:28:20.851Z,1020.58
2019-03-23T02:29:20.836Z,1020.51
2019-03-23T02:30:20.826Z,1020.53
2019-03-23T02:31:20.810Z,1020.53
2019-03-23T02:32:20.806Z,1020.51
2019-03-23T02:33:20.918Z,1020.54
2019-03-23T02:34:20.774Z,1020.52
2019-03-23T02:35:20.784Z,1020.48
2019-03-23T02:36:20.761Z,1020.46
2019-03-23T02:37:27.695Z,1020.48
2019-03-23T02:38:21.731Z,1020.50
2019-03-23T02:39:20.729Z,1020.47
2019-03-23T02:40:20.724Z,1020.51
2019-03-23T02:41:20.702Z,1020.49
2019-03-23T02:42:20.699Z,1020.52
2019-03-23T02:43:20.703Z,1020.52
2019-03-23T02:44:20.673Z,1020.53
2019-03-23T02:45:20.673Z,1020.55
2019-03-23T02:46:20.657Z,1020.54
2019-03-23T02:47:20.641Z,1020.53
2019-03-23T02:48:20.631Z,1020.53
2019-03-23T02:49:20.618Z,1020.51
2019-03-23T02:50:20.613Z,1020.51
2019-03-23T02:51:20.605Z,1020.53
2019-03-23T02:52:20.583Z,1020.50
2019-03-23T02:53:20.581Z,1020.52
2019-03-23T02:54:20.564Z,1020.56
2019-03-23T02:55:20.552Z,1020.54
2019-03-23T02:56:20.560Z,1020.53
2019-03-23T02:57:20.535Z,1020.54
2019-03-23T02:58:20.520Z,1020.55
2019-03-23T02:59:20.508Z,1020.56
2019-03-23T03:00:20.504Z,1020.56
2019-03-23T03:01:20.486Z,1020.58
2019-03-23T03:02:20.518Z,1020.54
2019-03-23T03:03:20.466Z,1020.51
2019-03-23T03:04:20.460Z,1020.57
2019-03-23T03:05:20.446Z,1020.57
2019-03-23T03:06:20.449Z,1020.57
2019-03-23T03:07:20.431Z,1020.57
2019-03-23T03:08:20.429Z,1020.56
2019-03-23T03:09:20.408Z,1020.54
2019-03-23T03:10:20.401Z,1020.54
2019-03-23T03:11:20.392Z,1020.57
2019-03-23T03:12:20.376Z,1020.58
2019-03-23T03:13:20.368Z,1020.56
2019-03-23T03:14:20.353Z,1020.55
2019-03-23T03:15:20.351Z,1020.58
2019-03-23T03:16:20.332Z,1020.60
2019-03-23T03:17:20.337Z,1020.58
2019-03-23T03:18:20.312Z,1020.59
2019-03-23T03:19:20.336Z,1020.57
2019-03-23T03:20:20.283Z,1020.53
2019-03-23T03:21:20.283Z,1020.58
2019-03-23T03:22:20.273Z,1020.52
2019-03-23T03:23:20.307Z,1020.55
2019-03-23T03:24:20.247Z,1020.51
2019-03-23T03:25:20.241Z,1020.57
2019-03-23T03:26:20.223Z,1020.52
2019-03-23T03:27:20.225Z,1020.54
2019-03-23T03:28:20.207Z,1020.49
2019-03-23T03:29:20.189Z,1020.50
2019-03-23T03:30:20.189Z,1020.52
2019-03-23T03:31:20.174Z,1020.48
2019-03-23T03:32:20.176Z,1020.50
2019-03-23T03:33:20.172Z,1020.51
2019-03-23T03:34:20.143Z,1020.45
2019-03-23T03:35:20.131Z,1020.47
2019-03-23T03:36:20.134Z,1020.47
2019-03-23T03:37:20.137Z,1020.48
2019-03-23T03:38:20.094Z,1020.45
2019-03-23T03:39:20.084Z,1020.47
2019-03-23T03:40:20.079Z,1020.52
2019-03-23T03:41:20.066Z,1020.53
2019-03-23T03:42:20.059Z,1020.49
2019-03-23T03:43:20.056Z,1020.51
2019-03-23T03:44:20.030Z,1020.50
2019-03-23T03:45:20.020Z,1020.50
2019-03-23T03:46:20.010Z,1020.50
2019-03-23T03:47:20.001Z,1020.51
2019-03-23T03:48:20.022Z,1020.47
2019-03-23T03:49:19.983Z,1020.46
2019-03-23T03:50:19.972Z,1020.42
2019-03-23T03:51:19.968Z,1020.38
2019-03-23T03:52:19.951Z,1020.39
2019-03-23T03:53:19.934Z,1020.44
2019-03-23T03:54:19.934Z,1020.43
2019-03-23T03:55:19.921Z,1020.37
2019-03-23T03:56:19.910Z,1020.45
2019-03-23T03:57:19.897Z,1020.43
2019-03-23T03:58:19.883Z,1020.41
2019-03-23T03:59:19.886Z,1020.34
2019-03-23T04:00:19.874Z,1020.39
2019-03-23T04:01:19.856Z,1020.38
2019-03-23T04:02:19.844Z,1020.34
2019-03-23T04:03:19.830Z,1020.36
2019-03-23T04:04:19.853Z,1020.35
2019-03-23T04:05:19.813Z,1020.39
2019-03-23T04:06:19.809Z,1020.36
2019-03-23T04:07:19.787Z,1020.37
2019-03-23T04:08:19.779Z,1020.36
2019-03-23T04:09:19.777Z,1020.33
2019-03-23T04:10:19.793Z,1020.32
2019-03-23T04:11:19.749Z,1020.27
2019-03-23T04:12:19.732Z,1020.28
2019-03-23T04:13:19.726Z,1020.27
2019-03-23T04:14:19.712Z,1020.26
2019-03-23T04:15:19.713Z,1020.28
2019-03-23T04:16:19.698Z,1020.26
2019-03-23T04:17:19.697Z,1020.25
2019-03-23T04:18:19.681Z,1020.26
2019-03-23T04:19:19.671Z,1020.22
2019-03-23T04:20:19.661Z,1020.21
2019-03-23T04:21:19.650Z,1020.20
2019-03-23T04:22:19.626Z,1020.21
2019-03-23T04:23:19.622Z,1020.19
2019-03-23T04:24:19.608Z,1020.20
2019-03-23T04:25:19.594Z,1020.15
2019-03-23T04:26:19.599Z,1020.17
2019-03-23T04:27:19.584Z,1020.16
2019-03-23T04:28:19.575Z,1020.20
2019-03-23T04:29:19.559Z,1020.18
2019-03-23T04:30:19.553Z,1020.22
2019-03-23T04:31:19.535Z,1020.24
2019-03-23T04:32:19.562Z,1020.21
2019-03-23T04:33:19.514Z,1020.20
2019-03-23T04:34:19.501Z,1020.27
2019-03-23T04:35:19.499Z,1020.26
2019-03-23T04:36:19.480Z,1020.25
2019-03-23T04:37:19.471Z,1020.23
2019-03-23T04:38:22.958Z,1020.25
2019-03-23T04:39:19.452Z,1020.26
2019-03-23T04:40:19.442Z,1020.25
2019-03-23T04:41:19.431Z,1020.23
2019-03-23T04:42:19.422Z,1020.23
2019-03-23T04:43:19.403Z,1020.22
2019-03-23T04:44:19.392Z,1020.24
2019-03-23T04:45:19.382Z,1020.21
2019-03-23T04:46:19.378Z,1020.20
2019-03-23T04:47:19.384Z,1020.23
2019-03-23T04:48:19.356Z,1020.23
2019-03-23T04:49:19.347Z,1020.20
2019-03-23T04:50:19.339Z,1020.20
2019-03-23T04:51:19.323Z,1020.20
2019-03-23T04:52:19.324Z,1020.20
2019-03-23T04:53:19.303Z,1020.22
2019-03-23T04:54:19.289Z,1020.23
2019-03-23T04:55:19.286Z,1020.23
2019-03-23T04:56:19.271Z,1020.19
2019-03-23T04:57:19.262Z,1020.22
2019-03-23T04:58:19.257Z,1020.19
2019-03-23T04:59:19.251Z,1020.16
2019-03-23T05:00:19.232Z,1020.22
2019-03-23T05:01:19.222Z,1020.19
2019-03-23T05:02:19.208Z,1020.22
2019-03-23T05:03:19.200Z,1020.21
2019-03-23T05:04:19.181Z,1020.22
2019-03-23T05:05:19.180Z,1020.20
2019-03-23T05:06:19.161Z,1020.12
2019-03-23T05:07:19.150Z,1020.16
2019-03-23T05:08:19.148Z,1020.16
2019-03-23T05:09:19.135Z,1020.16
2019-03-23T05:10:19.123Z,1020.13
2019-03-23T05:11:19.108Z,1020.11
2019-03-23T05:12:19.103Z,1020.11
2019-03-23T05:13:19.127Z,1020.09
2019-03-23T05:14:19.082Z,1020.08
2019-03-23T05:15:19.069Z,1020.08
2019-03-23T05:16:19.061Z,1020.03
2019-03-23T05:17:19.045Z,1020.03
2019-03-23T05:18:19.042Z,1020.02
2019-03-23T05:19:19.063Z,1020.02
2019-03-23T05:20:19.013Z,1019.99
2019-03-23T05:21:19.008Z,1019.95
2019-03-23T05:22:18.992Z,1019.98
2019-03-23T05:23:18.994Z,1019.97
2019-03-23T05:24:18.974Z,1019.93
2019-03-23T05:25:18.975Z,1019.95
2019-03-23T05:26:18.956Z,1019.97
2019-03-23T05:27:18.946Z,1019.97
2019-03-23T05:28:18.931Z,1019.96
2019-03-23T05:29:18.934Z,1019.97
2019-03-23T05:30:18.919Z,1019.98
2019-03-23T05:31:18.906Z,1019.99
2019-03-23T05:32:18.889Z,1019.96
2019-03-23T05:33:18.878Z,1019.99
2019-03-23T05:34:18.877Z,1019.96
2019-03-23T05:35:18.866Z,1019.94
2019-03-23T05:36:18.856Z,1019.96
2019-03-23T05:37:18.835Z,1019.93
2019-03-23T05:38:18.828Z,1019.91
2019-03-23T05:39:18.836Z,1019.93
2019-03-23T05:40:18.802Z,1019.91
2019-03-23T05:41:18.792Z,1019.96
2019-03-23T05:42:18.798Z,1019.85
2019-03-23T05:43:18.786Z,1019.90
2019-03-23T05:44:18.764Z,1019.89
2019-03-23T05:45:18.752Z,1019.94
2019-03-23T05:46:18.760Z,1019.91
2019-03-23T05:47:18.729Z,1019.91
2019-03-23T05:48:18.719Z,1019.95
2019-03-23T05:49:18.729Z,1019.97
2019-03-23T05:50:18.702Z,1019.96
2019-03-23T05:51:18.708Z,1020.01
2019-03-23T05:52:18.682Z,1019.98
2019-03-23T05:53:18.667Z,1020.03
2019-03-23T05:54:18.656Z,1019.94
2019-03-23T05:55:18.646Z,1019.99
2019-03-23T05:56:18.647Z,1019.96
2019-03-23T05:57:19.871Z,1019.98
2019-03-23T05:58:18.621Z,1019.98
2019-03-23T05:59:18.608Z,1019.96
2019-03-23T06:00:18.600Z,1019.95
2019-03-23T06:01:18.613Z,1019.91
2019-03-23T06:02:18.571Z,1019.95
2019-03-23T06:03:18.564Z,1019.93
2019-03-23T06:04:18.560Z,1019.93
2019-03-23T06:05:18.540Z,1019.97
2019-03-23T06:06:18.529Z,1019.98
2019-03-23T06:07:18.525Z,1019.96
2019-03-23T06:08:18.511Z,1019.98
2019-03-23T06:09:18.504Z,1019.96
2019-03-23T06:10:18.492Z,1019.94
2019-03-23T06:11:18.482Z,1019.95
2019-03-23T06:12:18.489Z,1019.96
2019-03-23T06:13:18.466Z,1019.94
2019-03-23T06:14:18.453Z,1019.92
2019-03-23T06:15:18.440Z,1019.94
2019-03-23T06:16:18.437Z,1019.92
2019-03-23T06:17:18.418Z,1019.90
2019-03-23T06:18:18.418Z,1019.89
2019-03-23T06:19:18.399Z,1019.88
2019-03-23T06:20:18.387Z,1019.94
2019-03-23T06:21:18.372Z,1019.90
2019-03-23T06:22:18.359Z,1019.88
2019-03-23T06:23:18.393Z,1019.93
2019-03-23T06:24:18.350Z,1019.89
2019-03-23T06:25:18.335Z,1019.90
2019-03-23T06:26:18.325Z,1019.89
2019-03-23T06:27:18.310Z,1019.92
2019-03-23T06:28:18.295Z,1019.95
2019-03-23T06:29:18.332Z,1019.89
2019-03-23T06:30:18.279Z,1019.93
2019-03-23T06:31:18.263Z,1019.91
2019-03-23T06:32:20.607Z,1019.90
2019-03-23T06:33:18.241Z,1019.92
2019-03-23T06:34:18.236Z,1019.93
2019-03-23T06:35:18.240Z,1019.93
2019-03-23T06:36:18.222Z,1019.93
2019-03-23T06:37:18.200Z,1019.93
2019-03-23T06:38:18.199Z,1019.92
2019-03-23T06:39:18.187Z,1019.93
2019-03-23T06:40:18.175Z,1019.90
2019-03-23T06:41:18.161Z,1019.91
2019-03-23T06:42:18.148Z,1019.91
2019-03-23T06:43:18.150Z,1019.91
2019-03-23T06:44:18.463Z,1019.95
2019-03-23T06:45:18.126Z,1019.95
2019-03-23T06:46:18.103Z,1019.92
2019-03-23T06:47:18.101Z,1019.91
2019-03-23T06:48:18.085Z,1019.87
2019-03-23T06:49:18.083Z,1019.89
2019-03-23T06:50:18.068Z,1019.91
2019-03-23T06:51:18.049Z,1019.91
2019-03-23T06:52:18.046Z,1019.91
2019-03-23T06:53:18.030Z,1019.89
2019-03-23T06:54:18.037Z,1019.84
2019-03-23T06:55:18.011Z,1019.85
2019-03-23T06:56:18.005Z,1019.84
2019-03-23T06:57:17.999Z,1019.86
2019-03-23T06:58:17.982Z,1019.93
2019-03-23T06:59:17.965Z,1019.88
2019-03-23T07:00:17.993Z,1019.91
2019-03-23T07:02:34.001Z,1019.86
2019-03-23T07:03:33.988Z,1019.90
2019-03-23T07:04:33.981Z,1019.91
2019-03-23T07:05:33.977Z,1019.91
2019-03-23T07:06:33.954Z,1019.90
2019-03-23T07:07:33.955Z,1019.89
2019-03-23T07:08:33.937Z,1019.81
2019-03-23T07:09:33.921Z,1019.81
2019-03-23T07:10:33.907Z,1019.79
2019-03-23T07:11:33.915Z,1019.79
2019-03-23T07:12:33.889Z,1019.82
2019-03-23T07:13:33.882Z,1019.79
2019-03-23T07:14:33.863Z,1019.82
2019-03-23T07:15:33.856Z,1019.78
2019-03-23T07:16:33.855Z,1019.75
2019-03-23T07:17:33.836Z,1019.74
2019-03-23T07:18:33.827Z,1019.73
2019-03-23T07:19:33.836Z,1019.75
2019-03-23T07:20:41.730Z,1019.72
2019-03-23T07:21:40.843Z,1019.72
2019-03-23T07:22:41.783Z,1019.70
2019-03-23T07:23:42.809Z,1019.72
2019-03-23T07:24:33.760Z,1019.64
2019-03-23T07:25:41.325Z,1019.72
2019-03-23T07:26:33.731Z,1019.69
2019-03-23T07:27:33.739Z,1019.66
2019-03-23T07:28:33.716Z,1019.65
2019-03-23T07:29:33.706Z,1019.66
2019-03-23T07:30:33.690Z,1019.72
2019-03-23T07:31:33.691Z,1019.72
2019-03-23T07:32:33.680Z,1019.78
2019-03-23T07:33:40.717Z,1019.77
2019-03-23T07:34:33.651Z,1019.78
2019-03-23T07:35:33.642Z,1019.76
2019-03-23T07:36:33.631Z,1019.76
2019-03-23T07:37:33.614Z,1019.79
2019-03-23T07:38:33.614Z,1019.85
2019-03-23T07:39:33.589Z,1019.78
2019-03-23T07:40:33.588Z,1019.85
2019-03-23T07:41:33.575Z,1019.82
2019-03-23T07:42:33.571Z,1019.87
2019-03-23T07:43:33.560Z,1019.87
2019-03-23T07:44:33.537Z,1019.77
2019-03-23T07:45:33.526Z,1019.84
2019-03-23T07:46:33.518Z,1019.84
2019-03-23T07:47:33.502Z,1019.89
2019-03-23T07:48:33.499Z,1019.89
2019-03-23T07:49:33.497Z,1019.84
2019-03-23T07:50:33.476Z,1019.87
2019-03-23T07:51:33.464Z,1019.88
2019-03-23T07:52:33.446Z,1019.84
2019-03-23T07:53:33.456Z,1019.85
2019-03-23T07:54:33.434Z,1019.87
2019-03-23T07:55:33.422Z,1019.87
2019-03-23T07:56:33.413Z,1019.90
2019-03-23T07:57:33.399Z,1019.86
2019-03-23T07:58:33.511Z,1019.93
2019-03-23T07:59:33.410Z,1019.89
2019-03-23T08:00:33.372Z,1019.86
2019-03-23T08:01:33.352Z,1019.91
2019-03-23T08:02:33.342Z,1019.88
2019-03-23T08:03:33.351Z,1019.87
2019-03-23T08:04:33.328Z,1019.91
2019-03-23T08:05:33.314Z,1019.87
2019-03-23T08:06:33.303Z,1019.89
2019-03-23T08:07:33.284Z,1019.91
2019-03-23T08:08:33.274Z,1019.95
2019-03-23T08:09:37.691Z,1019.94
2019-03-23T08:10:33.255Z,1020.00
2019-03-23T08:11:33.247Z,1019.94
2019-03-23T08:12:33.228Z,1019.95
2019-03-23T08:13:33.285Z,1019.95
2019-03-23T08:14:33.206Z,1019.97
2019-03-23T08:15:33.210Z,1019.93
2019-03-23T08:16:33.195Z,1019.94
2019-03-23T08:17:33.174Z,1019.91
2019-03-23T08:18:33.168Z,1019.92
2019-03-23T08:19:33.196Z,1019.93
2019-03-23T08:20:33.147Z,1019.91
2019-03-23T08:21:33.129Z,1019.87
2019-03-23T08:22:33.124Z,1019.89
2019-03-23T08:23:33.112Z,1019.90
2019-03-23T08:24:33.096Z,1019.95
2019-03-23T08:25:33.100Z,1019.90
2019-03-23T08:26:33.078Z,1019.89
2019-03-23T08:27:33.070Z,1019.92
2019-03-23T08:28:33.058Z,1019.92
2019-03-23T08:29:33.043Z,1019.88
2019-03-23T08:30:33.045Z,1019.93
2019-03-23T08:31:33.025Z,1019.89
2019-03-23T08:32:33.012Z,1019.94
2019-03-23T08:33:33.005Z,1019.90
2019-03-23T08:34:32.997Z,1019.89
2019-03-23T08:35:33.028Z,1019.90
2019-03-23T08:36:32.966Z,1019.88
2019-03-23T08:37:32.959Z,1019.84
2019-03-23T08:38:32.952Z,1019.84
2019-03-23T08:39:32.942Z,1019.83
2019-03-23T08:40:32.923Z,1019.79
2019-03-23T08:41:32.950Z,1019.84
2019-03-23T08:42:34.965Z,1019.82
2019-03-23T08:43:32.890Z,1019.82
2019-03-23T08:44:32.885Z,1019.86
2019-03-23T08:45:32.920Z,1019.82
2019-03-23T08:46:32.899Z,1019.85
2019-03-23T08:47:32.859Z,1019.90
2019-03-23T08:48:32.841Z,1019.91
2019-03-23T08:49:32.906Z,1019.86
2019-03-23T08:50:32.822Z,1019.86
2019-03-23T08:51:32.848Z,1019.84
2019-03-23T08:52:32.833Z,1019.87
2019-03-23T08:53:32.788Z,1019.84
2019-03-23T08:54:32.804Z,1019.86
2019-03-23T08:55:32.763Z,1019.84
2019-03-23T08:56:32.756Z,1019.89
2019-03-23T08:57:32.761Z,1019.86
2019-03-23T08:58:32.736Z,1019.81
2019-03-23T08:59:32.726Z,1019.82
2019-03-23T09:00:32.714Z,1019.84
2019-03-23T09:01:32.698Z,1019.84
2019-03-23T09:02:32.704Z,1019.81
2019-03-23T09:03:32.683Z,1019.83
2019-03-23T09:04:32.674Z,1019.87
2019-03-23T09:05:32.662Z,1019.85
2019-03-23T09:06:32.651Z,1019.86
2019-03-23T09:07:32.648Z,1019.85
2019-03-23T09:08:32.628Z,1019.81
2019-03-23T09:09:32.619Z,1019.83
2019-03-23T09:10:32.617Z,1019.81
2019-03-23T09:11:32.604Z,1019.77
2019-03-23T09:12:32.585Z,1019.75
2019-03-23T09:13:40.241Z,1019.82
2019-03-23T09:14:33.583Z,1019.72
2019-03-23T09:15:32.553Z,1019.73
2019-03-23T09:16:32.546Z,1019.74
2019-03-23T09:17:32.540Z,1019.76
2019-03-23T09:18:32.559Z,1019.73
2019-03-23T09:19:32.507Z,1019.75
2019-03-23T09:20:32.502Z,1019.79
2019-03-23T09:21:32.507Z,1019.79
2019-03-23T09:22:32.482Z,1019.80
2019-03-23T09:23:32.464Z,1019.81
2019-03-23T09:24:32.471Z,1019.80
2019-03-23T09:25:32.461Z,1019.80
2019-03-23T09:26:32.442Z,1019.82
2019-03-23T09:27:32.428Z,1019.83
2019-03-23T09:28:32.424Z,1019.87
2019-03-23T09:29:32.405Z,1019.86
2019-03-23T09:30:32.396Z,1019.80
2019-03-23T09:31:32.393Z,1019.80
2019-03-23T09:32:32.374Z,1019.81
2019-03-23T09:33:32.385Z,1019.83
2019-03-23T09:34:32.400Z,1019.82
2019-03-23T09:35:32.347Z,1019.88
2019-03-23T09:36:32.337Z,1019.85
2019-03-23T09:37:32.321Z,1019.88
2019-03-23T09:38:32.313Z,1019.91
2019-03-23T09:39:32.326Z,1019.89
2019-03-23T09:40:32.312Z,1019.89
2019-03-23T09:41:32.283Z,1019.89
2019-03-23T09:42:32.272Z,1019.91
2019-03-23T09:43:32.265Z,1019.92
2019-03-23T09:44:32.261Z,1019.88
2019-03-23T09:45:32.251Z,1019.87
2019-03-23T09:46:32.233Z,1019.94
2019-03-23T09:47:32.216Z,1019.92
2019-03-23T09:48:32.203Z,1019.95
2019-03-23T09:49:32.206Z,1019.99
2019-03-23T09:50:32.187Z,1020.00
2019-03-23T09:51:32.194Z,1019.98
2019-03-23T09:52:32.174Z,1019.98
2019-03-23T09:53:32.151Z,1020.01
2019-03-23T09:54:32.145Z,1019.97
2019-03-23T09:55:32.149Z,1020.04
2019-03-23T09:56:32.160Z,1020.06
2019-03-23T09:57:32.118Z,1020.04
2019-03-23T09:58:32.108Z,1020.06
2019-03-23T09:59:32.089Z,1020.08
2019-03-23T10:00:32.087Z,1020.11
2019-03-23T10:01:32.075Z,1020.04
2019-03-23T10:02:32.066Z,1020.03
2019-03-23T10:03:32.065Z,1020.00
2019-03-23T10:04:32.087Z,1019.96
2019-03-23T10:05:32.034Z,1019.92
2019-03-23T10:06:32.023Z,1019.92
2019-03-23T10:07:32.023Z,1019.94
2019-03-23T10:08:32.008Z,1019.94
2019-03-23T10:09:31.990Z,1019.90
2019-03-23T10:10:31.979Z,1019.95
2019-03-23T10:11:32.000Z,1019.88
2019-03-23T10:12:31.958Z,1019.95
2019-03-23T10:13:31.949Z,1019.93
2019-03-23T10:14:31.938Z,1019.91
2019-03-23T10:15:31.924Z,1019.96
2019-03-23T10:16:31.912Z,1019.99
2019-03-23T10:17:31.916Z,1019.98
2019-03-23T10:18:31.909Z,1020.00
2019-03-23T10:19:31.889Z,1020.06
2019-03-23T10:20:31.876Z,1020.02
2019-03-23T10:21:31.892Z,1019.99
2019-03-23T10:22:31.877Z,1019.99
2019-03-23T10:23:31.859Z,1020.03
2019-03-23T10:24:31.830Z,1019.97
2019-03-23T10:25:31.828Z,1019.95
2019-03-23T10:26:31.815Z,1019.98
2019-03-23T10:27:31.840Z,1020.02
2019-03-23T10:28:31.791Z,1020.00
2019-03-23T10:29:31.777Z,1020.06
2019-03-23T10:30:31.764Z,1020.04
2019-03-23T10:31:31.754Z,1020.07
2019-03-23T10:32:31.745Z,1020.07
2019-03-23T10:33:31.780Z,1020.07
2019-03-23T10:34:31.727Z,1020.06
2019-03-23T10:35:31.769Z,1020.04
2019-03-23T10:36:31.706Z,1020.05
2019-03-23T10:37:31.697Z,1020.05
2019-03-23T10:38:31.686Z,1020.02
2019-03-23T10:39:31.689Z,1020.06
2019-03-23T10:40:32.781Z,1020.06
2019-03-23T10:41:31.655Z,1020.10
2019-03-23T10:42:31.639Z,1020.07
2019-03-23T10:43:31.633Z,1020.08
2019-03-23T10:44:31.632Z,1020.04
2019-03-23T10:45:31.613Z,1020.04
2019-03-23T10:46:31.600Z,1020.03
2019-03-23T10:47:31.677Z,1019.98
2019-03-23T10:48:31.583Z,1020.03
2019-03-23T10:49:31.601Z,1020.01
2019-03-23T10:50:31.569Z,1020.02
2019-03-23T10:51:31.547Z,1019.99
2019-03-23T10:52:32.554Z,1020.03
2019-03-23T10:53:31.547Z,1020.01
2019-03-23T10:54:31.520Z,1019.97
2019-03-23T10:55:31.524Z,1020.02
2019-03-23T10:56:31.505Z,1020.02
2019-03-23T10:57:31.485Z,1020.05
2019-03-23T10:58:31.479Z,1020.08
2019-03-23T10:59:31.465Z,1019.97
2019-03-23T11:00:31.475Z,1019.97
2019-03-23T11:01:31.456Z,1019.99
2019-03-23T11:02:31.445Z,1020.03
2019-03-23T11:03:31.439Z,1020.01
2019-03-23T11:04:31.418Z,1020.03
2019-03-23T11:05:31.409Z,1020.02
2019-03-23T11:06:31.407Z,1020.05
2019-03-23T11:07:31.396Z,1020.03
2019-03-23T11:08:31.375Z,1020.09
2019-03-23T11:09:31.378Z,1020.04
2019-03-23T11:10:31.353Z,1020.06
2019-03-23T11:11:31.349Z,1020.02
2019-03-23T11:12:31.346Z,1020.03
2019-03-23T11:13:31.336Z,1020.05
2019-03-23T11:14:31.317Z,1020.02
2019-03-23T11:15:31.311Z,1020.01
2019-03-23T11:16:38.875Z,1019.99
2019-03-23T11:17:31.281Z,1019.99
2019-03-23T11:18:31.276Z,1019.99
2019-03-23T11:19:31.265Z,1020.02
2019-03-23T11:20:31.259Z,1020.04
2019-03-23T11:21:31.257Z,1020.10
2019-03-23T11:22:31.252Z,1020.04
2019-03-23T11:23:31.224Z,1020.07
2019-03-23T11:24:31.210Z,1020.07
2019-03-23T11:25:31.202Z,1020.04
2019-03-23T11:26:31.198Z,1020.09
2019-03-23T11:27:31.202Z,1020.05
2019-03-23T11:28:31.178Z,1020.08
2019-03-23T11:29:31.157Z,1020.05
2019-03-23T11:30:31.148Z,1020.04
2019-03-23T11:31:31.168Z,1020.09
2019-03-23T11:32:31.141Z,1020.04
2019-03-23T11:33:31.122Z,1020.05
2019-03-23T11:34:31.106Z,1020.05
2019-03-23T11:35:31.096Z,1020.00
2019-03-23T11:36:31.118Z,1020.03
2019-03-23T11:37:31.332Z,1020.02
2019-03-23T11:38:31.076Z,1020.02
2019-03-23T11:39:31.063Z,1020.01
2019-03-23T11:40:31.053Z,1020.01
2019-03-23T11:41:31.034Z,1020.10
2019-03-23T11:42:31.030Z,1020.09
2019-03-23T11:43:38.116Z,1020.11
2019-03-23T11:44:31.009Z,1020.08
2019-03-23T11:45:30.994Z,1020.07
2019-03-23T11:46:30.983Z,1020.04
2019-03-23T11:47:30.978Z,1020.05
2019-03-23T11:48:30.968Z,1020.04
2019-03-23T11:49:30.969Z,1020.05
2019-03-23T11:50:38.537Z,1020.02
2019-03-23T11:51:30.937Z,1020.09
2019-03-23T11:52:30.923Z,1020.06
2019-03-23T11:53:30.912Z,1020.10
2019-03-23T11:54:30.917Z,1020.05
2019-03-23T11:55:30.897Z,1020.03
2019-03-23T11:56:30.887Z,1020.05
2019-03-23T11:57:30.876Z,1020.02
2019-03-23T11:58:30.871Z,1020.06
2019-03-23T11:59:37.941Z,1020.08
2019-03-23T12:00:30.839Z,1020.09
2019-03-23T12:01:30.836Z,1020.14
2019-03-23T12:02:30.821Z,1020.13
2019-03-23T12:03:30.809Z,1020.17
2019-03-23T12:04:30.806Z,1020.18
2019-03-23T12:05:30.812Z,1020.21
2019-03-23T12:06:30.783Z,1020.17